M S San Francisco — WZC3886 — position and weather

sailwx.info

Track history (hours):
 
Tides and Currents Weather Stations Pressure Air Temp Water Temp Dewpoint Dewpoint Depression Visibility Wind Speed Wind Dir Waves Ship Positions

M S San Francisco

Owner: GOLDEN GATE BRIDGE HWY & TRANSP DISTRICT, LARKSPUR, CA. More information available from US FCC via Universal Licensing System and Coast Guard Vessel Documentation Center.

Last reported at 2016-Apr-25 01:09 UTC. Time now 2016-May-06 03:36 UTC.
Position N 37°57' W 122°30'.
Warning: this ship's position is 11 days out of date.

Length 58 m.

Type: Passenger vessel. MMSI: 366963980.

Date/timePositionNaut miles runAvg speedWind from/ knotsBaromVisibWave heightAir tempDewpointWater temp
2016-Apr-25 01:09N 37°57' W 122°30'3 5.5
2016-Apr-25 00:34N 37°55' W 122°27'9 8.6
2016-Apr-24 23:33N 37°47' W 122°23'0 0.0
2016-Apr-24 22:33N 37°47' W 122°23'0 0.0
2016-Apr-24 21:33N 37°47' W 122°23'0 0.0
2016-Apr-24 20:33N 37°47' W 122°23'0 0.0
2016-Apr-24 19:33N 37°47' W 122°23'1211.5
2016-Apr-24 18:33N 37°57' W 122°30'0 0.0
2016-Apr-24 06:03N 37°57' W 122°30'0 0.0
2016-Apr-24 05:33N 37°57' W 122°30'1111.2
2016-Apr-24 04:33N 37°48' W 122°23'1 1.1
2016-Apr-24 03:33N 37°47' W 122°23'1 1.3
2016-Apr-24 02:33N 37°48' W 122°23'5 5.1
2016-Apr-24 01:33N 37°51' W 122°28'6 6.1
2016-Apr-24 00:33N 37°47' W 122°23'11 0.2
2016-Apr-21 21:33N 37°57' W 122°30'5 5.3
2016-Apr-21 20:33N 37°60' W 122°25'5 5.3
2016-Apr-21 19:33N 37°57' W 122°31'  
2016-Apr-18 02:33N 37°57' W 122°31'1110.5
2016-Apr-18 01:33N 37°48' W 122°24'5 5.4
2016-Apr-18 00:34N 37°51' W 122°29'5 5.4
2016-Apr-17 23:33N 37°48' W 122°24'5 5.4
2016-Apr-17 22:33N 37°51' W 122°29'3 2.5
2016-Apr-17 21:33N 37°50' W 122°26'3 3.0
2016-Apr-17 20:33N 37°48' W 122°24'5 5.4
2016-Apr-17 19:34N 37°51' W 122°29'2 1.7
2016-Apr-17 18:34N 37°51' W 122°27'4 3.9
2016-Apr-17 17:33N 37°48' W 122°24'1010.5
2016-Apr-17 16:33N 37°57' W 122°30'2 0.1
2016-Apr-17 03:10N 37°56' W 122°29'915.1
2016-Apr-17 02:33N 37°48' W 122°24'5 5.4
2016-Apr-17 01:33N 37°51' W 122°29'5 5.4
2016-Apr-17 00:34N 37°48' W 122°24'5 4.9
2016-Apr-16 23:34N 37°51' W 122°28'4 4.0
2016-Apr-16 22:33N 37°49' W 122°24'4 4.2
2016-Apr-16 21:34N 37°51' W 122°28'6 4.1
2016-Apr-16 20:10N 37°57' W 122°31'0 0.0
2016-Apr-16 01:19N 37°57' W 122°30'1013.6
2016-Apr-16 00:33N 37°48' W 122°24'2 1.7
2016-Apr-15 23:33N 37°49' W 122°24'7 6.7
2016-Apr-15 22:33N 37°55' W 122°28'2 2.4
2016-Apr-15 21:33N 37°57' W 122°31'0 0.0
2016-Apr-15 20:34N 37°57' W 122°31'0 0.0
2016-Apr-15 19:32N 37°57' W 122°31'0 0.0
2016-Apr-15 18:33N 37°57' W 122°31'0 0.0
2016-Apr-15 17:34N 37°57' W 122°31'0 0.0
2016-Apr-15 16:33N 37°57' W 122°31'8 7.9
2016-Apr-15 15:33N 37°51' W 122°24'8 7.5
2016-Apr-15 14:31N 37°57' W 122°30'0 0.0
2016-Apr-15 03:33N 37°57' W 122°31'8 8.5
2016-Apr-15 02:33N 37°50' W 122°24'8 7.8
2016-Apr-15 01:31N 37°56' W 122°30'  
Track history (hours):
 
Tides and Currents Weather Stations Pressure Air Temp Water Temp Dewpoint Dewpoint Depression Visibility Wind Speed Wind Dir Waves Ship Positions

M S San Francisco

Owner: GOLDEN GATE BRIDGE HWY & TRANSP DISTRICT, LARKSPUR, CA. More information available from US FCC via Universal Licensing System and Coast Guard Vessel Documentation Center.

Last reported at 2016-Apr-25 01:09 UTC. Time now 2016-May-06 03:36 UTC.
Position N 37°57' W 122°30'.
Warning: this ship's position is 11 days out of date.

Length 58 m.

Type: Passenger vessel. MMSI: 366963980.

Date/timePositionNaut miles runAvg speedWind from/ knotsBaromVisibWave heightAir tempDewpointWater temp
2016-Apr-25 01:09N 37°57' W 122°30'3 5.5
2016-Apr-25 00:34N 37°55' W 122°27'9 8.6
2016-Apr-24 23:33N 37°47' W 122°23'0 0.0
2016-Apr-24 22:33N 37°47' W 122°23'0 0.0
2016-Apr-24 21:33N 37°47' W 122°23'0 0.0
2016-Apr-24 20:33N 37°47' W 122°23'0 0.0
2016-Apr-24 19:33N 37°47' W 122°23'1211.5
2016-Apr-24 18:33N 37°57' W 122°30'0 0.0
2016-Apr-24 06:03N 37°57' W 122°30'0 0.0
2016-Apr-24 05:33N 37°57' W 122°30'1111.2
2016-Apr-24 04:33N 37°48' W 122°23'1 1.1
2016-Apr-24 03:33N 37°47' W 122°23'1 1.3
2016-Apr-24 02:33N 37°48' W 122°23'5 5.1
2016-Apr-24 01:33N 37°51' W 122°28'6 6.1
2016-Apr-24 00:33N 37°47' W 122°23'11 0.2
2016-Apr-21 21:33N 37°57' W 122°30'5 5.3
2016-Apr-21 20:33N 37°60' W 122°25'5 5.3
2016-Apr-21 19:33N 37°57' W 122°31'  
2016-Apr-18 02:33N 37°57' W 122°31'1110.5
2016-Apr-18 01:33N 37°48' W 122°24'5 5.4
2016-Apr-18 00:34N 37°51' W 122°29'5 5.4
2016-Apr-17 23:33N 37°48' W 122°24'5 5.4
2016-Apr-17 22:33N 37°51' W 122°29'3 2.5
2016-Apr-17 21:33N 37°50' W 122°26'3 3.0
2016-Apr-17 20:33N 37°48' W 122°24'5 5.4
2016-Apr-17 19:34N 37°51' W 122°29'2 1.7
2016-Apr-17 18:34N 37°51' W 122°27'4 3.9
2016-Apr-17 17:33N 37°48' W 122°24'1010.5
2016-Apr-17 16:33N 37°57' W 122°30'2 0.1
2016-Apr-17 03:10N 37°56' W 122°29'915.1
2016-Apr-17 02:33N 37°48' W 122°24'5 5.4
2016-Apr-17 01:33N 37°51' W 122°29'5 5.4
2016-Apr-17 00:34N 37°48' W 122°24'5 4.9
2016-Apr-16 23:34N 37°51' W 122°28'4 4.0
2016-Apr-16 22:33N 37°49' W 122°24'4 4.2
2016-Apr-16 21:34N 37°51' W 122°28'6 4.1
2016-Apr-16 20:10N 37°57' W 122°31'0 0.0
2016-Apr-16 01:19N 37°57' W 122°30'1013.6
2016-Apr-16 00:33N 37°48' W 122°24'2 1.7
2016-Apr-15 23:33N 37°49' W 122°24'7 6.7
2016-Apr-15 22:33N 37°55' W 122°28'2 2.4
2016-Apr-15 21:33N 37°57' W 122°31'0 0.0
2016-Apr-15 20:34N 37°57' W 122°31'0 0.0
2016-Apr-15 19:32N 37°57' W 122°31'0 0.0
2016-Apr-15 18:33N 37°57' W 122°31'0 0.0
2016-Apr-15 17:34N 37°57' W 122°31'0 0.0
2016-Apr-15 16:33N 37°57' W 122°31'8 7.9
2016-Apr-15 15:33N 37°51' W 122°24'8 7.5
2016-Apr-15 14:31N 37°57' W 122°30'0 0.0
2016-Apr-15 03:33N 37°57' W 122°31'8 8.5
2016-Apr-15 02:33N 37°50' W 122°24'8 7.8
2016-Apr-15 01:31N 37°56' W 122°30'  

Dump ship's entire track history